sensor_id;sensor_type;location;lat;lon;timestamp;P1;durP1;ratioP1;P2;durP2;ratioP2
23115;SDS011;11727;52.134;5.052;2023-04-26T00:01:28;5.10;;;2.28;;
23115;SDS011;11727;52.134;5.052;2023-04-26T00:03:54;12.23;;;3.13;;
23115;SDS011;11727;52.134;5.052;2023-04-26T00:06:21;6.05;;;2.30;;
23115;SDS011;11727;52.134;5.052;2023-04-26T00:08:47;9.55;;;2.22;;
23115;SDS011;11727;52.134;5.052;2023-04-26T00:11:12;7.55;;;3.03;;
23115;SDS011;11727;52.134;5.052;2023-04-26T00:13:38;6.55;;;2.42;;
23115;SDS011;11727;52.134;5.052;2023-04-26T00:16:04;6.40;;;2.67;;
23115;SDS011;11727;52.134;5.052;2023-04-26T00:18:30;11.90;;;3.20;;
23115;SDS011;11727;52.134;5.052;2023-04-26T00:20:56;5.65;;;2.72;;
23115;SDS011;11727;52.134;5.052;2023-04-26T00:23:21;7.13;;;2.97;;
23115;SDS011;11727;52.134;5.052;2023-04-26T00:25:47;6.57;;;2.47;;
23115;SDS011;11727;52.134;5.052;2023-04-26T00:28:12;5.53;;;2.58;;
23115;SDS011;11727;52.134;5.052;2023-04-26T00:30:38;8.43;;;2.88;;
23115;SDS011;11727;52.134;5.052;2023-04-26T00:33:11;11.98;;;3.00;;
23115;SDS011;11727;52.134;5.052;2023-04-26T00:35:37;12.75;;;2.53;;
23115;SDS011;11727;52.134;5.052;2023-04-26T00:38:02;8.25;;;2.95;;
23115;SDS011;11727;52.134;5.052;2023-04-26T00:40:29;5.60;;;2.47;;
23115;SDS011;11727;52.134;5.052;2023-04-26T00:42:58;11.00;;;2.65;;
23115;SDS011;11727;52.134;5.052;2023-04-26T00:45:23;8.38;;;2.50;;
23115;SDS011;11727;52.134;5.052;2023-04-26T00:47:50;4.50;;;2.25;;
23115;SDS011;11727;52.134;5.052;2023-04-26T00:50:16;5.53;;;2.80;;
23115;SDS011;11727;52.134;5.052;2023-04-26T00:52:42;8.73;;;3.30;;
23115;SDS011;11727;52.134;5.052;2023-04-26T00:55:09;8.77;;;2.80;;
23115;SDS011;11727;52.134;5.052;2023-04-26T00:57:35;9.65;;;2.95;;
23115;SDS011;11727;52.134;5.052;2023-04-26T01:00:01;10.73;;;3.13;;
23115;SDS011;11727;52.134;5.052;2023-04-26T01:02:27;6.22;;;2.47;;
23115;SDS011;11727;52.134;5.052;2023-04-26T01:04:52;6.05;;;2.72;;
23115;SDS011;11727;52.134;5.052;2023-04-26T01:07:18;6.20;;;2.25;;
23115;SDS011;11727;52.134;5.052;2023-04-26T01:09:44;7.40;;;2.70;;
23115;SDS011;11727;52.134;5.052;2023-04-26T01:12:12;10.05;;;3.00;;
23115;SDS011;11727;52.134;5.052;2023-04-26T01:14:38;5.75;;;2.67;;
23115;SDS011;11727;52.134;5.052;2023-04-26T01:17:04;9.38;;;3.03;;
23115;SDS011;11727;52.134;5.052;2023-04-26T01:19:30;14.20;;;3.05;;
23115;SDS011;11727;52.134;5.052;2023-04-26T01:21:56;12.90;;;3.15;;
23115;SDS011;11727;52.134;5.052;2023-04-26T01:24:22;6.15;;;2.47;;
23115;SDS011;11727;52.134;5.052;2023-04-26T01:26:48;5.28;;;2.38;;
23115;SDS011;11727;52.134;5.052;2023-04-26T01:29:14;7.30;;;2.17;;
23115;SDS011;11727;52.134;5.052;2023-04-26T01:31:41;6.70;;;2.70;;
23115;SDS011;11727;52.134;5.052;2023-04-26T01:34:07;14.77;;;2.75;;
23115;SDS011;11727;52.134;5.052;2023-04-26T01:36:33;7.80;;;2.85;;
23115;SDS011;11727;52.134;5.052;2023-04-26T01:38:58;5.07;;;2.58;;
23115;SDS011;11727;52.134;5.052;2023-04-26T01:41:24;6.57;;;2.47;;
23115;SDS011;11727;52.134;5.052;2023-04-26T01:43:49;5.57;;;2.83;;
23115;SDS011;11727;52.134;5.052;2023-04-26T01:46:15;12.07;;;3.33;;
23115;SDS011;11727;52.134;5.052;2023-04-26T01:48:41;9.30;;;2.83;;
23115;SDS011;11727;52.134;5.052;2023-04-26T01:51:06;12.45;;;4.55;;
23115;SDS011;11727;52.134;5.052;2023-04-26T01:53:32;7.85;;;2.50;;
23115;SDS011;11727;52.134;5.052;2023-04-26T01:56:01;8.43;;;3.50;;
23115;SDS011;11727;52.134;5.052;2023-04-26T01:58:28;7.50;;;3.20;;
23115;SDS011;11727;52.134;5.052;2023-04-26T02:00:55;5.82;;;3.38;;
23115;SDS011;11727;52.134;5.052;2023-04-26T02:03:21;13.20;;;3.08;;
23115;SDS011;11727;52.134;5.052;2023-04-26T02:05:47;9.35;;;2.17;;
23115;SDS011;11727;52.134;5.052;2023-04-26T02:08:12;7.75;;;2.67;;
23115;SDS011;11727;52.134;5.052;2023-04-26T02:10:38;9.32;;;2.30;;
23115;SDS011;11727;52.134;5.052;2023-04-26T02:13:06;7.85;;;3.05;;
23115;SDS011;11727;52.134;5.052;2023-04-26T02:15:32;11.82;;;3.03;;
23115;SDS011;11727;52.134;5.052;2023-04-26T02:17:58;8.68;;;3.40;;
23115;SDS011;11727;52.134;5.052;2023-04-26T02:20:23;4.07;;;2.03;;
23115;SDS011;11727;52.134;5.052;2023-04-26T02:22:49;6.78;;;3.35;;
23115;SDS011;11727;52.134;5.052;2023-04-26T02:25:15;7.47;;;3.05;;
23115;SDS011;11727;52.134;5.052;2023-04-26T02:27:40;6.68;;;2.65;;
23115;SDS011;11727;52.134;5.052;2023-04-26T02:30:06;6.60;;;3.20;;
23115;SDS011;11727;52.134;5.052;2023-04-26T02:32:32;7.53;;;2.50;;
23115;SDS011;11727;52.134;5.052;2023-04-26T02:34:58;10.18;;;2.90;;
23115;SDS011;11727;52.134;5.052;2023-04-26T02:37:23;5.15;;;2.28;;
23115;SDS011;11727;52.134;5.052;2023-04-26T02:39:49;13.98;;;3.00;;
23115;SDS011;11727;52.134;5.052;2023-04-26T02:42:15;12.40;;;2.90;;
23115;SDS011;11727;52.134;5.052;2023-04-26T02:44:41;8.85;;;2.78;;
23115;SDS011;11727;52.134;5.052;2023-04-26T02:47:07;10.30;;;2.33;;
23115;SDS011;11727;52.134;5.052;2023-04-26T02:49:33;13.82;;;3.30;;
23115;SDS011;11727;52.134;5.052;2023-04-26T02:51:59;6.80;;;2.67;;
23115;SDS011;11727;52.134;5.052;2023-04-26T02:54:24;5.78;;;2.40;;
23115;SDS011;11727;52.134;5.052;2023-04-26T02:56:50;10.75;;;3.38;;
23115;SDS011;11727;52.134;5.052;2023-04-26T02:59:16;11.13;;;3.42;;
23115;SDS011;11727;52.134;5.052;2023-04-26T03:01:41;10.50;;;2.70;;
23115;SDS011;11727;52.134;5.052;2023-04-26T03:04:07;9.50;;;2.38;;
23115;SDS011;11727;52.134;5.052;2023-04-26T03:06:33;6.50;;;2.33;;
23115;SDS011;11727;52.134;5.052;2023-04-26T03:08:59;4.40;;;2.20;;
23115;SDS011;11727;52.134;5.052;2023-04-26T03:11:25;6.05;;;2.50;;
23115;SDS011;11727;52.134;5.052;2023-04-26T03:13:51;6.40;;;2.75;;
23115;SDS011;11727;52.134;5.052;2023-04-26T03:16:19;3.90;;;1.95;;
23115;SDS011;11727;52.134;5.052;2023-04-26T03:18:47;4.63;;;2.22;;
23115;SDS011;11727;52.134;5.052;2023-04-26T03:21:12;6.90;;;2.35;;
23115;SDS011;11727;52.134;5.052;2023-04-26T03:23:38;5.72;;;2.83;;
23115;SDS011;11727;52.134;5.052;2023-04-26T03:26:04;8.13;;;2.58;;
23115;SDS011;11727;52.134;5.052;2023-04-26T03:28:29;10.63;;;3.90;;
23115;SDS011;11727;52.134;5.052;2023-04-26T03:30:55;10.65;;;2.78;;
23115;SDS011;11727;52.134;5.052;2023-04-26T03:33:21;8.18;;;2.22;;
23115;SDS011;11727;52.134;5.052;2023-04-26T03:35:47;6.03;;;2.83;;
23115;SDS011;11727;52.134;5.052;2023-04-26T03:38:12;15.52;;;2.85;;
23115;SDS011;11727;52.134;5.052;2023-04-26T03:40:38;6.47;;;2.80;;
23115;SDS011;11727;52.134;5.052;2023-04-26T03:43:04;14.23;;;3.28;;
23115;SDS011;11727;52.134;5.052;2023-04-26T03:45:29;6.50;;;2.97;;
23115;SDS011;11727;52.134;5.052;2023-04-26T03:47:55;9.65;;;3.33;;
23115;SDS011;11727;52.134;5.052;2023-04-26T03:50:20;10.18;;;2.85;;
23115;SDS011;11727;52.134;5.052;2023-04-26T03:52:46;6.55;;;2.60;;
23115;SDS011;11727;52.134;5.052;2023-04-26T03:55:12;10.95;;;2.75;;
23115;SDS011;11727;52.134;5.052;2023-04-26T03:57:38;9.15;;;2.78;;
23115;SDS011;11727;52.134;5.052;2023-04-26T04:00:04;6.22;;;3.05;;
23115;SDS011;11727;52.134;5.052;2023-04-26T04:02:38;8.60;;;2.78;;
23115;SDS011;11727;52.134;5.052;2023-04-26T04:05:04;9.10;;;2.95;;
23115;SDS011;11727;52.134;5.052;2023-04-26T04:07:30;6.80;;;2.58;;
23115;SDS011;11727;52.134;5.052;2023-04-26T04:09:57;9.90;;;3.03;;
23115;SDS011;11727;52.134;5.052;2023-04-26T04:12:23;6.60;;;2.40;;
23115;SDS011;11727;52.134;5.052;2023-04-26T04:14:52;5.10;;;2.53;;
23115;SDS011;11727;52.134;5.052;2023-04-26T04:17:18;10.13;;;2.80;;
23115;SDS011;11727;52.134;5.052;2023-04-26T04:19:43;14.18;;;4.07;;
23115;SDS011;11727;52.134;5.052;2023-04-26T04:22:09;6.50;;;2.55;;
23115;SDS011;11727;52.134;5.052;2023-04-26T04:24:35;11.68;;;2.40;;
23115;SDS011;11727;52.134;5.052;2023-04-26T04:27:01;7.05;;;2.85;;
23115;SDS011;11727;52.134;5.052;2023-04-26T04:29:27;5.40;;;2.63;;
23115;SDS011;11727;52.134;5.052;2023-04-26T04:31:53;5.75;;;2.35;;
23115;SDS011;11727;52.134;5.052;2023-04-26T04:34:19;6.30;;;2.47;;
23115;SDS011;11727;52.134;5.052;2023-04-26T04:36:45;9.60;;;2.38;;
23115;SDS011;11727;52.134;5.052;2023-04-26T04:39:11;7.75;;;2.63;;
23115;SDS011;11727;52.134;5.052;2023-04-26T04:41:40;12.90;;;3.13;;
23115;SDS011;11727;52.134;5.052;2023-04-26T04:44:12;7.65;;;2.45;;
23115;SDS011;11727;52.134;5.052;2023-04-26T04:49:05;5.47;;;2.10;;
23115;SDS011;11727;52.134;5.052;2023-04-26T04:51:33;8.73;;;3.03;;
23115;SDS011;11727;52.134;5.052;2023-04-26T04:53:59;8.85;;;3.47;;
23115;SDS011;11727;52.134;5.052;2023-04-26T04:56:40;7.28;;;1.95;;
23115;SDS011;11727;52.134;5.052;2023-04-26T04:59:06;6.68;;;2.30;;
23115;SDS011;11727;52.134;5.052;2023-04-26T05:01:32;6.53;;;2.35;;
23115;SDS011;11727;52.134;5.052;2023-04-26T05:04:01;11.73;;;2.55;;
23115;SDS011;11727;52.134;5.052;2023-04-26T05:06:27;6.65;;;2.47;;
23115;SDS011;11727;52.134;5.052;2023-04-26T05:08:54;6.55;;;2.47;;
23115;SDS011;11727;52.134;5.052;2023-04-26T05:11:20;7.18;;;2.40;;
23115;SDS011;11727;52.134;5.052;2023-04-26T05:13:46;4.60;;;1.88;;
23115;SDS011;11727;52.134;5.052;2023-04-26T05:16:12;7.18;;;2.67;;
23115;SDS011;11727;52.134;5.052;2023-04-26T05:18:38;4.28;;;1.80;;
23115;SDS011;11727;52.134;5.052;2023-04-26T05:21:04;5.35;;;2.17;;
23115;SDS011;11727;52.134;5.052;2023-04-26T05:23:30;5.22;;;2.08;;
23115;SDS011;11727;52.134;5.052;2023-04-26T05:25:55;5.72;;;2.58;;
23115;SDS011;11727;52.134;5.052;2023-04-26T05:28:25;4.18;;;1.52;;
23115;SDS011;11727;52.134;5.052;2023-04-26T05:30:50;6.88;;;2.92;;
23115;SDS011;11727;52.134;5.052;2023-04-26T05:33:16;6.30;;;2.28;;
23115;SDS011;11727;52.134;5.052;2023-04-26T05:35:41;5.38;;;2.17;;
23115;SDS011;11727;52.134;5.052;2023-04-26T05:38:10;9.13;;;2.03;;
23115;SDS011;11727;52.134;5.052;2023-04-26T05:40:36;6.85;;;1.50;;
23115;SDS011;11727;52.134;5.052;2023-04-26T05:43:02;8.02;;;2.15;;
23115;SDS011;11727;52.134;5.052;2023-04-26T05:45:27;10.70;;;2.67;;
23115;SDS011;11727;52.134;5.052;2023-04-26T05:47:53;5.40;;;2.40;;
23115;SDS011;11727;52.134;5.052;2023-04-26T05:50:19;3.55;;;1.65;;
23115;SDS011;11727;52.134;5.052;2023-04-26T05:52:45;5.53;;;1.77;;
23115;SDS011;11727;52.134;5.052;2023-04-26T05:55:11;6.95;;;1.80;;
23115;SDS011;11727;52.134;5.052;2023-04-26T05:57:37;6.25;;;1.80;;
23115;SDS011;11727;52.134;5.052;2023-04-26T06:00:03;7.30;;;1.52;;
23115;SDS011;11727;52.134;5.052;2023-04-26T06:02:30;10.87;;;2.43;;
23115;SDS011;11727;52.134;5.052;2023-04-26T06:04:56;6.43;;;2.30;;
23115;SDS011;11727;52.134;5.052;2023-04-26T06:07:21;3.00;;;1.63;;
23115;SDS011;11727;52.134;5.052;2023-04-26T06:09:47;7.50;;;2.33;;
23115;SDS011;11727;52.134;5.052;2023-04-26T06:12:13;3.42;;;1.88;;
23115;SDS011;11727;52.134;5.052;2023-04-26T06:14:38;4.60;;;1.73;;
23115;SDS011;11727;52.134;5.052;2023-04-26T06:17:04;7.50;;;2.33;;
23115;SDS011;11727;52.134;5.052;2023-04-26T06:19:30;4.90;;;2.42;;
23115;SDS011;11727;52.134;5.052;2023-04-26T06:21:55;4.00;;;1.83;;
23115;SDS011;11727;52.134;5.052;2023-04-26T06:24:22;4.93;;;1.90;;
23115;SDS011;11727;52.134;5.052;2023-04-26T06:29:16;4.68;;;1.33;;
23115;SDS011;11727;52.134;5.052;2023-04-26T06:31:42;2.20;;;1.17;;
23115;SDS011;11727;52.134;5.052;2023-04-26T06:34:08;8.60;;;1.75;;
23115;SDS011;11727;52.134;5.052;2023-04-26T06:36:33;3.28;;;1.40;;
23115;SDS011;11727;52.134;5.052;2023-04-26T06:38:59;3.40;;;1.23;;
23115;SDS011;11727;52.134;5.052;2023-04-26T06:41:25;7.05;;;1.50;;
23115;SDS011;11727;52.134;5.052;2023-04-26T06:43:51;6.40;;;1.55;;
23115;SDS011;11727;52.134;5.052;2023-04-26T06:46:16;5.95;;;1.27;;
23115;SDS011;11727;52.134;5.052;2023-04-26T06:48:45;5.00;;;1.15;;
23115;SDS011;11727;52.134;5.052;2023-04-26T06:51:11;8.75;;;1.73;;
23115;SDS011;11727;52.134;5.052;2023-04-26T06:53:37;7.32;;;1.45;;
23115;SDS011;11727;52.134;5.052;2023-04-26T06:56:02;3.30;;;1.50;;
23115;SDS011;11727;52.134;5.052;2023-04-26T06:58:28;6.00;;;2.08;;
23115;SDS011;11727;52.134;5.052;2023-04-26T07:00:53;2.58;;;1.17;;
23115;SDS011;11727;52.134;5.052;2023-04-26T07:03:19;2.70;;;1.13;;
23115;SDS011;11727;52.134;5.052;2023-04-26T07:05:45;2.00;;;0.93;;
23115;SDS011;11727;52.134;5.052;2023-04-26T07:08:10;1.70;;;0.63;;
23115;SDS011;11727;52.134;5.052;2023-04-26T07:10:38;2.55;;;0.70;;
23115;SDS011;11727;52.134;5.052;2023-04-26T07:13:05;8.85;;;1.30;;
23115;SDS011;11727;52.134;5.052;2023-04-26T07:15:34;6.13;;;1.00;;
23115;SDS011;11727;52.134;5.052;2023-04-26T07:18:00;2.97;;;0.60;;
23115;SDS011;11727;52.134;5.052;2023-04-26T07:20:25;3.17;;;0.70;;
23115;SDS011;11727;52.134;5.052;2023-04-26T07:22:51;1.17;;;0.55;;
23115;SDS011;11727;52.134;5.052;2023-04-26T07:25:17;4.93;;;0.50;;
23115;SDS011;11727;52.134;5.052;2023-04-26T07:27:43;3.75;;;0.57;;
23115;SDS011;11727;52.134;5.052;2023-04-26T07:30:08;4.68;;;0.85;;
23115;SDS011;11727;52.134;5.052;2023-04-26T07:32:34;2.30;;;0.70;;
23115;SDS011;11727;52.134;5.052;2023-04-26T07:35:01;1.70;;;0.75;;
23115;SDS011;11727;52.134;5.052;2023-04-26T07:37:31;1.55;;;0.63;;
23115;SDS011;11727;52.134;5.052;2023-04-26T07:39:57;2.35;;;0.70;;
23115;SDS011;11727;52.134;5.052;2023-04-26T07:42:24;1.97;;;0.63;;
23115;SDS011;11727;52.134;5.052;2023-04-26T07:44:52;2.03;;;0.50;;
23115;SDS011;11727;52.134;5.052;2023-04-26T07:47:17;2.15;;;0.80;;
23115;SDS011;11727;52.134;5.052;2023-04-26T07:49:43;2.15;;;0.63;;
23115;SDS011;11727;52.134;5.052;2023-04-26T07:52:08;3.15;;;0.90;;
23115;SDS011;11727;52.134;5.052;2023-04-26T07:54:34;2.30;;;0.63;;
23115;SDS011;11727;52.134;5.052;2023-04-26T07:57:00;2.67;;;0.70;;
23115;SDS011;11727;52.134;5.052;2023-04-26T07:59:34;2.42;;;1.23;;
23115;SDS011;11727;52.134;5.052;2023-04-26T08:01:59;3.30;;;0.77;;
23115;SDS011;11727;52.134;5.052;2023-04-26T08:04:29;3.67;;;1.27;;
23115;SDS011;11727;52.134;5.052;2023-04-26T08:06:57;3.55;;;1.45;;
23115;SDS011;11727;52.134;5.052;2023-04-26T08:09:23;4.68;;;1.30;;
23115;SDS011;11727;52.134;5.052;2023-04-26T08:11:48;3.55;;;1.50;;
23115;SDS011;11727;52.134;5.052;2023-04-26T08:14:17;4.10;;;1.42;;
23115;SDS011;11727;52.134;5.052;2023-04-26T08:16:42;4.28;;;1.75;;
23115;SDS011;11727;52.134;5.052;2023-04-26T08:19:08;5.97;;;1.20;;
23115;SDS011;11727;52.134;5.052;2023-04-26T08:21:34;4.80;;;1.02;;
23115;SDS011;11727;52.134;5.052;2023-04-26T08:23:59;1.42;;;0.60;;
23115;SDS011;11727;52.134;5.052;2023-04-26T08:26:25;3.33;;;0.88;;
23115;SDS011;11727;52.134;5.052;2023-04-26T08:28:50;2.72;;;0.88;;
23115;SDS011;11727;52.134;5.052;2023-04-26T08:31:16;4.35;;;1.25;;
23115;SDS011;11727;52.134;5.052;2023-04-26T08:33:42;3.72;;;0.90;;
23115;SDS011;11727;52.134;5.052;2023-04-26T08:36:07;1.70;;;0.60;;
23115;SDS011;11727;52.134;5.052;2023-04-26T08:38:33;2.75;;;0.90;;
23115;SDS011;11727;52.134;5.052;2023-04-26T08:40:59;4.13;;;0.60;;
23115;SDS011;11727;52.134;5.052;2023-04-26T08:43:26;1.15;;;0.63;;
23115;SDS011;11727;52.134;5.052;2023-04-26T08:45:52;3.73;;;1.20;;
23115;SDS011;11727;52.134;5.052;2023-04-26T08:48:19;3.17;;;0.50;;
23115;SDS011;11727;52.134;5.052;2023-04-26T08:50:45;1.63;;;0.63;;
23115;SDS011;11727;52.134;5.052;2023-04-26T08:53:15;2.35;;;1.15;;
23115;SDS011;11727;52.134;5.052;2023-04-26T08:55:48;1.13;;;0.50;;
23115;SDS011;11727;52.134;5.052;2023-04-26T08:58:18;4.68;;;0.73;;
23115;SDS011;11727;52.134;5.052;2023-04-26T09:00:44;1.27;;;0.70;;
23115;SDS011;11727;52.134;5.052;2023-04-26T09:03:10;1.67;;;0.60;;
23115;SDS011;11727;52.134;5.052;2023-04-26T09:05:42;1.65;;;0.82;;
23115;SDS011;11727;52.134;5.052;2023-04-26T09:08:11;1.70;;;1.02;;
23115;SDS011;11727;52.134;5.052;2023-04-26T09:10:40;2.90;;;0.73;;
23115;SDS011;11727;52.134;5.052;2023-04-26T09:13:06;3.40;;;0.90;;
23115;SDS011;11727;52.134;5.052;2023-04-26T09:15:31;4.78;;;1.27;;
23115;SDS011;11727;52.134;5.052;2023-04-26T09:18:14;3.45;;;0.93;;
23115;SDS011;11727;52.134;5.052;2023-04-26T09:21:00;3.08;;;0.50;;
23115;SDS011;11727;52.134;5.052;2023-04-26T09:23:33;3.60;;;1.02;;
23115;SDS011;11727;52.134;5.052;2023-04-26T09:26:15;3.50;;;0.90;;
23115;SDS011;11727;52.134;5.052;2023-04-26T09:28:42;2.78;;;0.50;;
23115;SDS011;11727;52.134;5.052;2023-04-26T09:31:07;4.07;;;0.90;;
23115;SDS011;11727;52.134;5.052;2023-04-26T09:33:33;1.70;;;0.50;;
23115;SDS011;11727;52.134;5.052;2023-04-26T09:36:12;8.27;;;0.60;;
23115;SDS011;11727;52.134;5.052;2023-04-26T09:38:41;3.40;;;0.70;;
23115;SDS011;11727;52.134;5.052;2023-04-26T09:41:07;2.65;;;0.85;;
23115;SDS011;11727;52.134;5.052;2023-04-26T09:43:35;2.22;;;0.57;;
23115;SDS011;11727;52.134;5.052;2023-04-26T09:46:01;1.33;;;0.70;;
23115;SDS011;11727;52.134;5.052;2023-04-26T09:48:31;4.38;;;0.73;;
23115;SDS011;11727;52.134;5.052;2023-04-26T09:53:40;6.55;;;0.77;;
23115;SDS011;11727;52.134;5.052;2023-04-26T09:56:10;1.98;;;0.80;;
23115;SDS011;11727;52.134;5.052;2023-04-26T10:01:11;3.42;;;1.05;;
23115;SDS011;11727;52.134;5.052;2023-04-26T10:03:47;2.90;;;0.65;;
23115;SDS011;11727;52.134;5.052;2023-04-26T10:06:15;3.47;;;0.95;;
23115;SDS011;11727;52.134;5.052;2023-04-26T10:08:42;11.60;;;1.08;;
23115;SDS011;11727;52.134;5.052;2023-04-26T10:11:08;6.60;;;0.93;;
23115;SDS011;11727;52.134;5.052;2023-04-26T10:13:38;2.67;;;0.73;;
23115;SDS011;11727;52.134;5.052;2023-04-26T10:18:31;1.95;;;0.88;;
23115;SDS011;11727;52.134;5.052;2023-04-26T10:20:59;4.35;;;0.85;;
23115;SDS011;11727;52.134;5.052;2023-04-26T10:23:38;4.93;;;1.08;;
23115;SDS011;11727;52.134;5.052;2023-04-26T10:26:05;3.05;;;1.15;;
23115;SDS011;11727;52.134;5.052;2023-04-26T10:31:15;6.10;;;1.17;;
23115;SDS011;11727;52.134;5.052;2023-04-26T10:33:40;4.35;;;1.42;;
23115;SDS011;11727;52.134;5.052;2023-04-26T10:36:07;2.00;;;0.75;;
23115;SDS011;11727;52.134;5.052;2023-04-26T10:38:35;2.20;;;0.80;;
23115;SDS011;11727;52.134;5.052;2023-04-26T10:43:54;2.80;;;0.80;;
23115;SDS011;11727;52.134;5.052;2023-04-26T10:46:31;1.83;;;0.70;;
23115;SDS011;11727;52.134;5.052;2023-04-26T10:49:22;3.17;;;1.05;;
23115;SDS011;11727;52.134;5.052;2023-04-26T10:57:15;5.35;;;0.75;;
23115;SDS011;11727;52.134;5.052;2023-04-26T11:02:55;3.00;;;0.93;;
23115;SDS011;11727;52.134;5.052;2023-04-26T11:08:28;4.15;;;0.80;;
23115;SDS011;11727;52.134;5.052;2023-04-26T11:10:58;5.50;;;1.23;;
23115;SDS011;11727;52.134;5.052;2023-04-26T11:13:39;1.75;;;0.60;;
23115;SDS011;11727;52.134;5.052;2023-04-26T11:16:07;0.73;;;0.50;;
23115;SDS011;11727;52.134;5.052;2023-04-26T11:18:34;2.80;;;0.60;;
23115;SDS011;11727;52.134;5.052;2023-04-26T11:21:01;5.20;;;0.85;;
23115;SDS011;11727;52.134;5.052;2023-04-26T11:23:27;6.55;;;1.25;;
23115;SDS011;11727;52.134;5.052;2023-04-26T11:25:58;4.00;;;1.20;;
23115;SDS011;11727;52.134;5.052;2023-04-26T11:28:26;1.90;;;0.50;;
23115;SDS011;11727;52.134;5.052;2023-04-26T11:30:52;3.80;;;0.95;;
23115;SDS011;11727;52.134;5.052;2023-04-26T11:33:19;8.88;;;0.80;;
23115;SDS011;11727;52.134;5.052;2023-04-26T11:35:48;8.35;;;0.70;;
23115;SDS011;11727;52.134;5.052;2023-04-26T11:38:15;3.13;;;0.60;;
23115;SDS011;11727;52.134;5.052;2023-04-26T11:40:41;2.20;;;0.98;;
23115;SDS011;11727;52.134;5.052;2023-04-26T11:43:08;1.75;;;0.90;;
23115;SDS011;11727;52.134;5.052;2023-04-26T11:45:36;2.85;;;1.02;;
23115;SDS011;11727;52.134;5.052;2023-04-26T11:48:06;3.72;;;1.15;;
23115;SDS011;11727;52.134;5.052;2023-04-26T11:50:35;2.50;;;0.88;;
23115;SDS011;11727;52.134;5.052;2023-04-26T11:53:03;4.25;;;1.13;;
23115;SDS011;11727;52.134;5.052;2023-04-26T11:55:31;1.55;;;0.73;;
23115;SDS011;11727;52.134;5.052;2023-04-26T11:58:01;2.88;;;0.63;;
23115;SDS011;11727;52.134;5.052;2023-04-26T12:00:35;1.67;;;1.00;;
23115;SDS011;11727;52.134;5.052;2023-04-26T12:03:04;7.00;;;2.17;;
23115;SDS011;11727;52.134;5.052;2023-04-26T12:05:34;2.38;;;0.70;;
23115;SDS011;11727;52.134;5.052;2023-04-26T12:08:00;3.00;;;1.08;;
23115;SDS011;11727;52.134;5.052;2023-04-26T12:10:27;2.80;;;1.00;;
23115;SDS011;11727;52.134;5.052;2023-04-26T12:12:58;2.00;;;0.68;;
23115;SDS011;11727;52.134;5.052;2023-04-26T12:15:33;6.38;;;2.72;;
23115;SDS011;11727;52.134;5.052;2023-04-26T12:17:59;5.00;;;2.20;;
23115;SDS011;11727;52.134;5.052;2023-04-26T12:20:33;2.28;;;0.98;;
23115;SDS011;11727;52.134;5.052;2023-04-26T12:23:06;6.85;;;1.85;;
23115;SDS011;11727;52.134;5.052;2023-04-26T12:25:34;9.65;;;4.72;;
23115;SDS011;11727;52.134;5.052;2023-04-26T12:28:01;4.32;;;1.33;;
23115;SDS011;11727;52.134;5.052;2023-04-26T12:30:35;1.83;;;0.75;;
23115;SDS011;11727;52.134;5.052;2023-04-26T12:33:01;1.42;;;0.52;;
23115;SDS011;11727;52.134;5.052;2023-04-26T12:35:27;1.25;;;0.77;;
23115;SDS011;11727;52.134;5.052;2023-04-26T12:37:54;2.72;;;0.52;;
23115;SDS011;11727;52.134;5.052;2023-04-26T12:40:20;2.03;;;0.50;;
23115;SDS011;11727;52.134;5.052;2023-04-26T12:42:47;5.32;;;0.93;;
23115;SDS011;11727;52.134;5.052;2023-04-26T12:45:14;1.52;;;0.85;;
23115;SDS011;11727;52.134;5.052;2023-04-26T12:47:40;4.68;;;2.03;;
23115;SDS011;11727;52.134;5.052;2023-04-26T12:50:06;3.92;;;0.60;;
23115;SDS011;11727;52.134;5.052;2023-04-26T12:52:36;3.95;;;1.10;;
23115;SDS011;11727;52.134;5.052;2023-04-26T12:55:03;2.05;;;0.75;;
23115;SDS011;11727;52.134;5.052;2023-04-26T12:57:29;1.40;;;0.70;;
23115;SDS011;11727;52.134;5.052;2023-04-26T12:59:54;3.42;;;0.80;;
23115;SDS011;11727;52.134;5.052;2023-04-26T13:02:20;4.68;;;0.73;;
23115;SDS011;11727;52.134;5.052;2023-04-26T13:04:47;6.30;;;1.00;;
23115;SDS011;11727;52.134;5.052;2023-04-26T13:07:16;3.17;;;0.65;;
23115;SDS011;11727;52.134;5.052;2023-04-26T13:09:42;4.07;;;0.88;;
23115;SDS011;11727;52.134;5.052;2023-04-26T13:12:07;0.98;;;0.60;;
23115;SDS011;11727;52.134;5.052;2023-04-26T13:14:33;2.10;;;0.70;;
23115;SDS011;11727;52.134;5.052;2023-04-26T13:16:59;2.92;;;0.63;;
23115;SDS011;11727;52.134;5.052;2023-04-26T13:19:24;2.63;;;0.80;;
23115;SDS011;11727;52.134;5.052;2023-04-26T13:21:50;4.05;;;0.90;;
23115;SDS011;11727;52.134;5.052;2023-04-26T13:24:17;3.03;;;1.38;;
23115;SDS011;11727;52.134;5.052;2023-04-26T13:26:42;3.70;;;1.08;;
23115;SDS011;11727;52.134;5.052;2023-04-26T13:29:08;3.63;;;0.82;;
23115;SDS011;11727;52.134;5.052;2023-04-26T13:31:33;3.75;;;0.70;;
23115;SDS011;11727;52.134;5.052;2023-04-26T13:34:00;5.70;;;1.40;;
23115;SDS011;11727;52.134;5.052;2023-04-26T13:36:27;5.85;;;1.38;;
23115;SDS011;11727;52.134;5.052;2023-04-26T13:38:53;3.53;;;1.00;;
23115;SDS011;11727;52.134;5.052;2023-04-26T13:41:19;2.47;;;0.68;;
23115;SDS011;11727;52.134;5.052;2023-04-26T13:43:46;1.55;;;0.70;;
23115;SDS011;11727;52.134;5.052;2023-04-26T13:46:12;1.27;;;0.65;;
23115;SDS011;11727;52.134;5.052;2023-04-26T13:48:37;2.20;;;1.00;;
23115;SDS011;11727;52.134;5.052;2023-04-26T13:51:04;2.63;;;0.82;;
23115;SDS011;11727;52.134;5.052;2023-04-26T13:53:30;2.92;;;0.88;;
23115;SDS011;11727;52.134;5.052;2023-04-26T13:55:56;2.00;;;0.80;;
23115;SDS011;11727;52.134;5.052;2023-04-26T13:58:21;5.45;;;1.15;;
23115;SDS011;11727;52.134;5.052;2023-04-26T14:00:47;2.42;;;0.90;;
23115;SDS011;11727;52.134;5.052;2023-04-26T14:03:16;2.10;;;0.68;;
23115;SDS011;11727;52.134;5.052;2023-04-26T14:05:41;4.88;;;0.90;;
23115;SDS011;11727;52.134;5.052;2023-04-26T14:08:07;4.10;;;1.25;;
23115;SDS011;11727;52.134;5.052;2023-04-26T14:10:32;5.47;;;0.90;;
23115;SDS011;11727;52.134;5.052;2023-04-26T14:12:58;3.55;;;1.13;;
23115;SDS011;11727;52.134;5.052;2023-04-26T14:15:24;3.85;;;0.85;;
23115;SDS011;11727;52.134;5.052;2023-04-26T14:17:49;3.60;;;0.80;;
23115;SDS011;11727;52.134;5.052;2023-04-26T14:20:15;2.80;;;0.70;;
23115;SDS011;11727;52.134;5.052;2023-04-26T14:22:41;6.60;;;1.17;;
23115;SDS011;11727;52.134;5.052;2023-04-26T14:25:06;4.70;;;1.15;;
23115;SDS011;11727;52.134;5.052;2023-04-26T14:27:33;4.82;;;1.60;;
23115;SDS011;11727;52.134;5.052;2023-04-26T14:29:59;5.65;;;1.08;;
23115;SDS011;11727;52.134;5.052;2023-04-26T14:32:25;3.58;;;1.20;;
23115;SDS011;11727;52.134;5.052;2023-04-26T14:34:50;5.78;;;1.45;;
23115;SDS011;11727;52.134;5.052;2023-04-26T14:37:16;3.05;;;1.00;;
23115;SDS011;11727;52.134;5.052;2023-04-26T14:39:46;2.65;;;1.00;;
23115;SDS011;11727;52.134;5.052;2023-04-26T14:42:12;4.72;;;1.13;;
23115;SDS011;11727;52.134;5.052;2023-04-26T14:44:38;6.68;;;1.02;;
23115;SDS011;11727;52.134;5.052;2023-04-26T14:47:04;6.60;;;1.30;;
23115;SDS011;11727;52.134;5.052;2023-04-26T14:49:29;2.45;;;1.05;;
23115;SDS011;11727;52.134;5.052;2023-04-26T14:51:55;4.57;;;1.00;;
23115;SDS011;11727;52.134;5.052;2023-04-26T14:54:21;2.75;;;0.98;;
23115;SDS011;11727;52.134;5.052;2023-04-26T14:56:46;2.53;;;1.10;;
23115;SDS011;11727;52.134;5.052;2023-04-26T14:59:12;1.25;;;0.60;;
23115;SDS011;11727;52.134;5.052;2023-04-26T15:01:38;1.88;;;0.75;;
23115;SDS011;11727;52.134;5.052;2023-04-26T15:04:03;1.55;;;0.73;;
23115;SDS011;11727;52.134;5.052;2023-04-26T15:06:29;1.75;;;0.75;;
23115;SDS011;11727;52.134;5.052;2023-04-26T15:08:57;1.42;;;0.93;;
23115;SDS011;11727;52.134;5.052;2023-04-26T15:11:23;0.80;;;0.57;;
23115;SDS011;11727;52.134;5.052;2023-04-26T15:13:49;1.58;;;0.70;;